createdAt,value
2018-09-26T00:01:03.619Z,11.78
2018-09-26T00:03:36.041Z,11.77
2018-09-26T00:06:05.467Z,11.77
2018-09-26T00:08:34.600Z,11.76
2018-09-26T00:11:04.975Z,11.82
2018-09-26T00:13:36.378Z,11.84
2018-09-26T00:16:05.819Z,11.86
2018-09-26T00:18:35.036Z,11.77
2018-09-26T00:21:05.064Z,11.69
2018-09-26T00:23:34.189Z,11.72
2018-09-26T00:29:04.758Z,11.61
2018-09-26T00:31:48.032Z,11.53
2018-09-26T00:34:17.343Z,11.62
2018-09-26T00:36:46.512Z,11.63
2018-09-26T00:39:16.624Z,11.66
2018-09-26T00:41:45.711Z,11.65
2018-09-26T00:44:14.840Z,11.72
2018-09-26T00:47:11.525Z,11.69
2018-09-26T00:49:41.174Z,11.79
2018-09-26T00:52:13.573Z,11.72
2018-09-26T00:54:42.610Z,11.79
2018-09-26T00:57:12.096Z,11.76
2018-09-26T00:59:43.207Z,11.67
2018-09-26T01:02:12.154Z,11.71
2018-09-26T01:04:43.078Z,11.75
2018-09-26T01:07:11.985Z,11.78
2018-09-26T01:09:40.933Z,11.75
2018-09-26T01:12:09.996Z,11.71
2018-09-26T01:14:39.029Z,11.77
2018-09-26T01:17:08.037Z,11.81
2018-09-26T01:19:37.585Z,11.84
2018-09-26T01:22:09.826Z,11.90
2018-09-26T01:24:38.966Z,11.95
2018-09-26T01:27:07.979Z,11.88
2018-09-26T01:29:37.140Z,11.82
2018-09-26T01:32:09.239Z,11.77
2018-09-26T01:34:39.053Z,11.79
2018-09-26T01:37:08.978Z,11.80
2018-09-26T01:39:38.295Z,11.77
2018-09-26T01:42:07.327Z,11.65
2018-09-26T01:44:36.158Z,11.63
2018-09-26T01:47:05.565Z,11.58
2018-09-26T01:49:40.532Z,11.51
2018-09-26T01:52:09.643Z,11.52
2018-09-26T01:54:39.162Z,11.56
2018-09-26T01:57:09.266Z,11.52
2018-09-26T01:59:38.337Z,11.49
2018-09-26T02:02:07.400Z,11.47
2018-09-26T02:04:36.417Z,11.50
2018-09-26T02:07:09.574Z,11.51
2018-09-26T02:09:46.622Z,11.47
2018-09-26T02:12:16.629Z,11.54
2018-09-26T02:14:51.075Z,11.49
2018-09-26T02:17:20.173Z,11.38
2018-09-26T02:19:49.121Z,11.36
2018-09-26T02:22:18.337Z,11.30
2018-09-26T02:24:47.494Z,11.24
2018-09-26T02:27:16.559Z,11.17
2018-09-26T02:29:45.546Z,11.11
2018-09-26T02:32:20.266Z,11.10
2018-09-26T02:34:49.395Z,11.05
2018-09-26T02:37:18.342Z,11.04
2018-09-26T02:39:54.392Z,11.02
2018-09-26T02:42:23.258Z,10.98
2018-09-26T02:44:52.304Z,10.93
2018-09-26T02:47:21.306Z,10.90
2018-09-26T02:49:56.303Z,10.84
2018-09-26T02:52:28.903Z,10.74
2018-09-26T02:54:58.911Z,10.72
2018-09-26T02:57:27.873Z,10.75
2018-09-26T03:00:12.777Z,10.73
2018-09-26T03:08:25.562Z,10.77
2018-09-26T03:10:55.947Z,10.82
2018-09-26T03:13:42.811Z,10.81
2018-09-26T03:22:00.715Z,10.79
2018-09-26T03:24:37.044Z,10.70
2018-09-26T03:27:13.662Z,10.67
2018-09-26T03:29:43.154Z,10.43
2018-09-26T03:32:12.084Z,10.14
2018-09-26T03:34:49.900Z,10.01
2018-09-26T03:40:22.607Z,9.78
2018-09-26T03:42:59.315Z,9.75
2018-09-26T03:45:28.424Z,9.63
2018-09-26T03:47:57.573Z,9.49
2018-09-26T03:50:26.441Z,9.37
2018-09-26T03:52:55.568Z,9.23
2018-09-26T03:55:24.675Z,9.21
2018-09-26T03:57:53.560Z,9.09
2018-09-26T04:00:22.622Z,9.15
2018-09-26T04:02:51.572Z,9.19
2018-09-26T04:05:20.564Z,9.18
2018-09-26T04:07:49.917Z,9.14
2018-09-26T04:10:23.851Z,9.23
2018-09-26T04:12:53.366Z,9.24
2018-09-26T04:15:22.285Z,9.31
2018-09-26T04:17:53.279Z,9.27
2018-09-26T04:20:22.295Z,9.41
2018-09-26T04:22:51.416Z,9.51
2018-09-26T04:25:21.243Z,9.49
2018-09-26T04:27:50.163Z,9.35
2018-09-26T04:30:18.990Z,9.41
2018-09-26T04:32:48.045Z,9.40
2018-09-26T04:35:16.965Z,9.45
2018-09-26T04:37:45.828Z,9.48
2018-09-26T04:40:15.224Z,9.50
2018-09-26T04:42:44.259Z,9.54
2018-09-26T04:45:13.216Z,9.57
2018-09-26T04:47:42.443Z,9.63
2018-09-26T04:50:12.363Z,9.68
2018-09-26T04:52:44.216Z,9.79
2018-09-26T04:55:13.172Z,9.75
2018-09-26T04:57:42.181Z,9.83
2018-09-26T05:00:11.296Z,9.97
2018-09-26T05:02:41.912Z,10.11
2018-09-26T05:05:10.792Z,10.17
2018-09-26T05:07:39.714Z,10.19
2018-09-26T05:10:09.200Z,10.24
2018-09-26T05:12:38.206Z,10.29
2018-09-26T05:15:07.695Z,10.40
2018-09-26T05:17:36.516Z,10.62
2018-09-26T05:20:05.765Z,10.79
2018-09-26T05:22:35.274Z,10.75
2018-09-26T05:25:04.441Z,10.94
2018-09-26T05:27:33.601Z,11.04
2018-09-26T05:30:02.950Z,11.10
2018-09-26T05:32:31.804Z,11.28
2018-09-26T05:35:00.710Z,11.44
2018-09-26T05:37:30.032Z,11.49
2018-09-26T05:40:06.091Z,11.75
2018-09-26T05:42:35.183Z,11.82
2018-09-26T05:45:04.207Z,12.00
2018-09-26T05:47:33.311Z,12.15
2018-09-26T05:50:03.536Z,12.22
2018-09-26T05:52:32.736Z,12.37
2018-09-26T05:55:01.782Z,12.31
2018-09-26T05:57:30.776Z,12.40
2018-09-26T05:59:59.711Z,12.24
2018-09-26T06:02:28.986Z,12.28
2018-09-26T06:04:58.450Z,12.33
2018-09-26T06:07:27.330Z,11.99
2018-09-26T06:09:56.378Z,11.78
2018-09-26T06:12:25.722Z,11.95
2018-09-26T06:14:54.564Z,11.92
2018-09-26T06:17:23.565Z,12.12
2018-09-26T06:19:52.634Z,12.07
2018-09-26T06:22:21.718Z,12.10
2018-09-26T06:24:50.620Z,12.09
2018-09-26T06:27:20.699Z,12.31
2018-09-26T06:29:49.542Z,12.26
2018-09-26T06:32:18.435Z,12.33
2018-09-26T06:34:47.418Z,12.39
2018-09-26T06:37:16.419Z,12.63
2018-09-26T06:39:45.187Z,12.75
2018-09-26T06:42:14.369Z,12.90
2018-09-26T06:44:43.309Z,12.95
2018-09-26T06:47:12.172Z,12.90
2018-09-26T06:49:41.257Z,12.96
2018-09-26T06:52:10.303Z,12.86
2018-09-26T06:54:39.276Z,12.71
2018-09-26T06:57:08.347Z,12.80
2018-09-26T06:59:37.231Z,12.71
2018-09-26T07:02:06.102Z,12.69
2018-09-26T07:04:35.873Z,12.97
2018-09-26T07:07:04.841Z,12.90
2018-09-26T07:09:33.861Z,12.91
2018-09-26T07:12:03.257Z,12.88
2018-09-26T07:14:32.221Z,13.18
2018-09-26T07:17:00.975Z,13.41
2018-09-26T07:19:30.037Z,13.72
2018-09-26T07:21:59.502Z,13.56
2018-09-26T07:24:28.509Z,13.45
2018-09-26T07:26:57.658Z,13.23
2018-09-26T07:29:26.652Z,13.40
2018-09-26T07:31:55.667Z,13.37
2018-09-26T07:34:29.826Z,13.53
2018-09-26T07:36:58.805Z,13.75
2018-09-26T07:39:27.642Z,14.00
2018-09-26T07:41:56.540Z,14.11
2018-09-26T07:44:25.472Z,14.27
2018-09-26T07:46:54.526Z,14.37
2018-09-26T07:49:23.685Z,14.14
2018-09-26T07:51:52.805Z,14.02
2018-09-26T07:54:21.906Z,14.18
2018-09-26T07:56:51.310Z,14.37
2018-09-26T07:59:20.206Z,14.53
2018-09-26T08:01:49.213Z,14.19
2018-09-26T08:04:18.393Z,14.32
2018-09-26T08:06:47.160Z,14.26
2018-09-26T08:09:16.287Z,14.37
2018-09-26T08:11:45.478Z,14.55
2018-09-26T08:14:14.386Z,14.53
2018-09-26T08:16:43.485Z,14.56
2018-09-26T08:19:12.561Z,14.83
2018-09-26T08:21:41.555Z,14.60
2018-09-26T08:24:10.615Z,14.61
2018-09-26T08:26:39.900Z,14.59
2018-09-26T08:29:08.855Z,14.45
2018-09-26T08:31:37.851Z,14.68
2018-09-26T08:34:07.353Z,14.94
2018-09-26T08:36:36.248Z,14.99
2018-09-26T08:39:14.386Z,14.91
2018-09-26T08:41:43.299Z,15.24
2018-09-26T08:44:12.317Z,15.50
2018-09-26T08:46:45.364Z,15.00
2018-09-26T08:49:16.397Z,15.31
2018-09-26T08:51:45.784Z,15.20
2018-09-26T08:54:14.719Z,15.25
2018-09-26T08:56:43.668Z,15.31
2018-09-26T08:59:12.876Z,15.51
2018-09-26T09:01:46.409Z,15.62
2018-09-26T09:04:16.275Z,15.68
2018-09-26T09:06:45.767Z,15.41
2018-09-26T09:09:14.752Z,15.54
2018-09-26T09:11:43.736Z,15.77
2018-09-26T09:14:12.807Z,15.85
2018-09-26T09:16:41.853Z,16.01
2018-09-26T09:19:11.524Z,16.08
2018-09-26T09:21:40.410Z,16.21
2018-09-26T09:26:51.811Z,16.42
2018-09-26T09:29:20.996Z,16.57
2018-09-26T09:34:42.958Z,17.08
2018-09-26T09:37:11.996Z,17.33
2018-09-26T09:39:40.950Z,17.19
2018-09-26T09:42:10.251Z,17.49
2018-09-26T09:44:39.233Z,17.25
2018-09-26T09:47:08.270Z,17.29
2018-09-26T09:49:37.594Z,17.58
2018-09-26T09:52:06.697Z,17.62
2018-09-26T09:54:35.641Z,17.33
2018-09-26T09:57:04.724Z,17.62
2018-09-26T09:59:33.711Z,17.71
2018-09-26T10:02:02.584Z,17.50
2018-09-26T10:04:31.707Z,17.41
2018-09-26T10:07:00.432Z,17.16
2018-09-26T10:09:29.398Z,17.30
2018-09-26T10:11:58.577Z,16.82
2018-09-26T10:14:27.727Z,17.09
2018-09-26T10:16:56.656Z,17.32
2018-09-26T10:19:26.899Z,17.45
2018-09-26T10:21:55.642Z,17.24
2018-09-26T10:24:24.481Z,17.04
2018-09-26T10:26:53.500Z,17.26
2018-09-26T10:29:22.370Z,17.50
2018-09-26T10:31:51.261Z,17.75
2018-09-26T10:34:20.341Z,17.92
2018-09-26T10:36:49.037Z,18.08
2018-09-26T10:39:17.869Z,17.15
2018-09-26T10:41:46.717Z,17.18
2018-09-26T10:44:15.517Z,17.29
2018-09-26T10:46:44.326Z,17.31
2018-09-26T10:49:14.563Z,17.43
2018-09-26T10:51:43.356Z,17.61
2018-09-26T10:54:12.219Z,17.59
2018-09-26T10:56:41.456Z,18.16
2018-09-26T10:59:10.323Z,18.45
2018-09-26T11:01:39.150Z,18.61
2018-09-26T11:04:08.712Z,18.84
2018-09-26T11:06:37.552Z,18.99
2018-09-26T11:09:08.409Z,19.00
2018-09-26T11:11:37.313Z,18.61
2018-09-26T11:14:06.223Z,18.61
2018-09-26T11:16:35.005Z,18.65
2018-09-26T11:19:03.873Z,18.49
2018-09-26T11:21:32.752Z,18.60
2018-09-26T11:24:01.689Z,18.40
2018-09-26T11:26:30.589Z,17.87
2018-09-26T11:28:59.419Z,17.69
2018-09-26T11:31:28.624Z,17.63
2018-09-26T11:33:57.512Z,17.69
2018-09-26T11:36:26.257Z,17.86
2018-09-26T11:38:55.555Z,17.85
2018-09-26T11:41:24.767Z,17.81
2018-09-26T11:43:53.619Z,17.68
2018-09-26T11:46:22.852Z,17.39
2018-09-26T11:48:51.668Z,17.39
2018-09-26T11:51:20.498Z,17.27
2018-09-26T11:53:49.537Z,17.30
2018-09-26T11:56:18.443Z,17.46
2018-09-26T11:58:47.219Z,17.41
2018-09-26T12:01:18.224Z,17.60
2018-09-26T12:03:47.087Z,17.92
2018-09-26T12:06:16.125Z,18.05
2018-09-26T12:08:45.021Z,18.02
2018-09-26T12:11:14.997Z,17.91
2018-09-26T12:13:43.858Z,18.17
2018-09-26T12:16:12.861Z,18.31
2018-09-26T12:18:42.072Z,17.94
2018-09-26T12:21:14.022Z,17.85
2018-09-26T12:23:42.960Z,17.95
2018-09-26T12:26:11.916Z,17.96
2018-09-26T12:28:40.788Z,18.03
2018-09-26T12:31:10.039Z,17.68
2018-09-26T12:33:38.927Z,18.02
2018-09-26T12:36:07.827Z,18.04
2018-09-26T12:38:36.782Z,17.75
2018-09-26T12:41:05.654Z,17.64
2018-09-26T12:43:34.384Z,17.76
2018-09-26T12:46:03.990Z,17.78
2018-09-26T12:48:32.992Z,17.55
2018-09-26T12:51:01.666Z,17.55
2018-09-26T12:53:30.658Z,17.58
2018-09-26T12:55:59.483Z,17.65
2018-09-26T12:58:28.352Z,17.57
2018-09-26T13:00:57.630Z,17.53
2018-09-26T13:03:26.519Z,17.51
2018-09-26T13:05:55.282Z,17.76
2018-09-26T13:08:24.128Z,17.93
2018-09-26T13:10:53.054Z,18.06
2018-09-26T13:13:22.188Z,17.97
2018-09-26T13:15:51.114Z,17.85
2018-09-26T13:18:19.986Z,17.73
2018-09-26T13:20:49.031Z,17.57
2018-09-26T13:23:18.246Z,17.30
2018-09-26T13:25:47.383Z,17.28
2018-09-26T13:28:24.286Z,17.08
2018-09-26T13:30:53.083Z,16.92
2018-09-26T13:33:22.101Z,16.94
2018-09-26T13:35:50.943Z,16.92
2018-09-26T13:38:19.794Z,16.84
2018-09-26T13:40:49.155Z,16.70
2018-09-26T13:43:17.997Z,16.66
2018-09-26T13:45:47.029Z,16.54
2018-09-26T13:48:16.096Z,16.67
2018-09-26T13:50:49.378Z,16.60
2018-09-26T13:53:18.292Z,16.61
2018-09-26T13:55:47.429Z,16.58
2018-09-26T13:58:21.093Z,16.56
2018-09-26T14:00:51.804Z,16.72
2018-09-26T14:03:20.890Z,16.74
2018-09-26T14:05:50.272Z,16.61
2018-09-26T14:08:20.054Z,16.57
2018-09-26T14:10:49.883Z,16.62
2018-09-26T14:13:19.403Z,16.75
2018-09-26T14:15:49.356Z,16.80
2018-09-26T14:18:18.726Z,17.03
2018-09-26T14:20:48.125Z,17.06
2018-09-26T14:23:17.988Z,16.71
2018-09-26T14:25:47.273Z,16.63
2018-09-26T14:28:16.524Z,16.60
2018-09-26T14:30:45.845Z,16.36
2018-09-26T14:33:15.234Z,16.53
2018-09-26T14:35:44.349Z,16.46
2018-09-26T14:38:13.926Z,16.49
2018-09-26T14:40:43.196Z,16.46
2018-09-26T14:43:12.453Z,16.51
2018-09-26T14:45:41.866Z,16.49
2018-09-26T14:48:12.169Z,16.36
2018-09-26T14:50:41.350Z,16.31
2018-09-26T14:53:11.345Z,16.16
2018-09-26T14:55:40.544Z,16.13
2018-09-26T14:58:09.819Z,15.98
2018-09-26T15:00:38.983Z,15.87
2018-09-26T15:03:08.336Z,15.80
2018-09-26T15:05:41.593Z,15.79
2018-09-26T15:08:11.244Z,15.83
2018-09-26T15:10:41.549Z,15.73
2018-09-26T15:13:13.908Z,15.67
2018-09-26T15:15:43.125Z,15.59
2018-09-26T15:18:12.452Z,15.56
2018-09-26T15:20:41.834Z,15.51
2018-09-26T15:23:11.200Z,15.39
2018-09-26T15:25:40.635Z,15.33
2018-09-26T15:28:10.061Z,15.20
2018-09-26T15:30:39.378Z,15.17
2018-09-26T15:33:08.930Z,15.11
2018-09-26T15:35:38.400Z,15.02
2018-09-26T15:38:07.778Z,14.99
2018-09-26T15:40:37.294Z,14.92
2018-09-26T15:43:06.685Z,14.89
2018-09-26T15:45:36.010Z,14.77
2018-09-26T15:48:05.332Z,14.76
2018-09-26T15:50:34.672Z,14.72
2018-09-26T15:53:03.910Z,14.69
2018-09-26T15:55:33.524Z,14.64
2018-09-26T15:58:03.345Z,14.65
2018-09-26T16:00:32.515Z,14.57
2018-09-26T16:03:02.095Z,14.55
2018-09-26T16:05:32.315Z,14.51
2018-09-26T16:08:01.719Z,14.40
2018-09-26T16:10:31.930Z,14.40
2018-09-26T16:13:01.431Z,14.38
2018-09-26T16:15:32.093Z,14.41
2018-09-26T16:18:02.580Z,14.34
2018-09-26T16:20:32.278Z,14.37
2018-09-26T16:23:02.141Z,14.30
2018-09-26T16:25:31.500Z,14.27
2018-09-26T16:28:02.459Z,14.28
2018-09-26T16:30:32.529Z,14.25
2018-09-26T16:33:02.172Z,14.22
2018-09-26T16:35:32.493Z,14.23
2018-09-26T16:38:02.572Z,14.16
2018-09-26T16:40:32.854Z,14.11
2018-09-26T16:43:03.041Z,14.15
2018-09-26T16:45:33.919Z,14.06
2018-09-26T16:48:05.206Z,14.06
2018-09-26T16:50:34.966Z,14.10
2018-09-26T16:53:05.261Z,14.06
2018-09-26T16:55:35.064Z,14.02
2018-09-26T16:58:04.774Z,13.99
2018-09-26T17:00:51.650Z,13.96
2018-09-26T17:03:21.375Z,13.88
2018-09-26T17:05:52.760Z,13.92
2018-09-26T17:08:23.394Z,13.87
2018-09-26T17:10:54.801Z,13.86
2018-09-26T17:13:26.778Z,13.82
2018-09-26T17:15:56.290Z,13.78
2018-09-26T17:18:26.866Z,13.68
2018-09-26T17:20:57.726Z,13.67
2018-09-26T17:23:27.173Z,13.69
2018-09-26T17:26:00.463Z,13.70
2018-09-26T17:28:31.530Z,13.73
2018-09-26T17:31:01.242Z,13.62
2018-09-26T17:33:31.152Z,13.64
2018-09-26T17:36:01.449Z,13.63
2018-09-26T17:38:31.054Z,13.59
2018-09-26T17:41:01.030Z,13.60
2018-09-26T17:43:31.772Z,13.51
2018-09-26T17:46:02.313Z,13.43
2018-09-26T17:48:33.771Z,13.41
2018-09-26T17:51:04.426Z,13.43
2018-09-26T17:53:33.992Z,13.40
2018-09-26T17:56:04.370Z,13.37
2018-09-26T17:58:34.950Z,13.40
2018-09-26T18:01:04.398Z,13.30
2018-09-26T18:03:34.938Z,13.24
2018-09-26T18:06:04.415Z,13.24
2018-09-26T18:08:33.722Z,13.27
2018-09-26T18:11:03.981Z,13.24
2018-09-26T18:13:41.140Z,13.21
2018-09-26T18:16:10.481Z,13.18
2018-09-26T18:18:43.014Z,13.12
2018-09-26T18:21:13.110Z,13.01
2018-09-26T18:23:42.991Z,12.90
2018-09-26T18:26:13.711Z,12.81
2018-09-26T18:28:43.351Z,12.69
2018-09-26T18:31:12.940Z,12.61
2018-09-26T18:33:42.470Z,12.61
2018-09-26T18:36:12.456Z,12.52
2018-09-26T18:38:42.151Z,12.43
2018-09-26T18:41:12.927Z,12.41
2018-09-26T18:43:42.739Z,12.29
2018-09-26T18:46:12.653Z,12.16
2018-09-26T18:48:42.206Z,12.11
2018-09-26T18:51:12.989Z,11.99
2018-09-26T18:53:42.385Z,11.88
2018-09-26T18:56:11.760Z,11.85
2018-09-26T18:58:42.155Z,11.81
2018-09-26T19:01:11.532Z,11.80
2018-09-26T19:03:40.868Z,11.68
2018-09-26T19:06:10.600Z,11.59
2018-09-26T19:08:40.426Z,11.61
2018-09-26T19:11:10.345Z,11.63
2018-09-26T19:13:39.778Z,11.53
2018-09-26T19:16:11.957Z,11.37
2018-09-26T19:18:42.680Z,11.35
2018-09-26T19:21:15.983Z,11.38
2018-09-26T19:23:45.715Z,11.30
2018-09-26T19:26:15.745Z,11.26
2018-09-26T19:28:45.895Z,11.20
2018-09-26T19:31:15.936Z,11.17
2018-09-26T19:33:47.241Z,11.07
2018-09-26T19:36:17.114Z,11.03
2018-09-26T19:38:48.523Z,10.99
2018-09-26T19:41:18.484Z,11.04
2018-09-26T19:43:50.392Z,10.97
2018-09-26T19:46:19.936Z,10.95
2018-09-26T19:48:50.729Z,10.83
2018-09-26T19:51:20.744Z,10.82
2018-09-26T19:53:52.261Z,10.79
2018-09-26T19:56:26.602Z,10.65
2018-09-26T19:58:57.360Z,10.55
2018-09-26T20:01:28.056Z,10.59
2018-09-26T20:04:16.140Z,10.51
2018-09-26T20:10:27.680Z,10.29
2018-09-26T20:12:58.446Z,10.24
2018-09-26T20:15:28.213Z,10.21
2018-09-26T20:17:58.512Z,10.23
2018-09-26T20:20:28.138Z,10.20
2018-09-26T20:22:57.653Z,10.19
2018-09-26T20:25:27.043Z,10.13
2018-09-26T20:27:58.787Z,10.18
2018-09-26T20:30:30.988Z,10.21
2018-09-26T20:33:00.867Z,10.21
2018-09-26T20:35:33.693Z,10.12
2018-09-26T20:38:03.847Z,10.23
2018-09-26T20:40:34.627Z,10.20
2018-09-26T20:43:05.122Z,10.14
2018-09-26T20:45:35.590Z,10.07
2018-09-26T20:48:06.598Z,10.05
2018-09-26T20:50:36.544Z,9.95
2018-09-26T20:53:06.129Z,10.00
2018-09-26T20:55:38.251Z,10.00
2018-09-26T20:58:09.723Z,9.99
2018-09-26T21:00:39.545Z,10.01
2018-09-26T21:03:09.472Z,9.90
2018-09-26T21:05:41.659Z,9.94
2018-09-26T21:08:12.138Z,9.83
2018-09-26T21:10:43.763Z,9.73
2018-09-26T21:13:14.179Z,9.67
2018-09-26T21:15:45.246Z,9.65
2018-09-26T21:18:15.190Z,9.70
2018-09-26T21:20:45.112Z,9.69
2018-09-26T21:23:16.475Z,9.66
2018-09-26T21:25:47.604Z,9.72
2018-09-26T21:28:18.316Z,9.60
2018-09-26T21:30:49.529Z,9.57
2018-09-26T21:33:19.093Z,9.45
2018-09-26T21:35:48.849Z,9.36
2018-09-26T21:38:18.369Z,9.27
2018-09-26T21:40:47.816Z,9.19
2018-09-26T21:43:17.352Z,9.13
2018-09-26T21:45:47.449Z,9.12
2018-09-26T21:48:17.016Z,9.10
2018-09-26T21:50:46.633Z,9.13
2018-09-26T21:53:16.922Z,9.09
2018-09-26T21:55:46.841Z,9.03
2018-09-26T21:58:17.486Z,8.98
2018-09-26T22:00:51.835Z,8.96
2018-09-26T22:03:22.473Z,8.92
2018-09-26T22:05:51.728Z,8.89
2018-09-26T22:08:21.400Z,8.87
2018-09-26T22:10:51.600Z,8.87
2018-09-26T22:13:21.046Z,8.87
2018-09-26T22:15:50.573Z,8.85
2018-09-26T22:18:20.103Z,8.83
2018-09-26T22:20:49.377Z,8.82
2018-09-26T22:23:19.867Z,8.82
2018-09-26T22:25:49.447Z,8.84
2018-09-26T22:28:19.678Z,8.87
2018-09-26T22:30:49.138Z,8.89
2018-09-26T22:33:18.736Z,8.96
2018-09-26T22:35:48.078Z,8.90
2018-09-26T22:38:17.259Z,8.87
2018-09-26T22:40:46.965Z,8.89
2018-09-26T22:43:16.185Z,8.84
2018-09-26T22:45:45.417Z,8.76
2018-09-26T22:48:15.260Z,8.72
2018-09-26T22:50:44.542Z,8.67
2018-09-26T22:53:13.815Z,8.67
2018-09-26T22:55:43.106Z,8.70
2018-09-26T22:58:12.375Z,8.68
2018-09-26T23:00:41.773Z,8.81
2018-09-26T23:03:11.023Z,8.94
2018-09-26T23:05:40.165Z,8.90
2018-09-26T23:08:09.255Z,8.73
2018-09-26T23:10:38.901Z,8.72
2018-09-26T23:13:08.076Z,8.69
2018-09-26T23:15:37.177Z,8.64
2018-09-26T23:18:06.483Z,8.73
2018-09-26T23:20:35.502Z,8.71
2018-09-26T23:23:04.669Z,8.50
2018-09-26T23:25:34.157Z,8.59
2018-09-26T23:28:03.193Z,8.54
2018-09-26T23:30:32.393Z,8.40
2018-09-26T23:33:01.736Z,8.46
2018-09-26T23:35:30.918Z,8.37
2018-09-26T23:37:59.997Z,8.28
2018-09-26T23:40:29.517Z,8.37
2018-09-26T23:43:02.107Z,8.32
2018-09-26T23:45:31.252Z,8.28
2018-09-26T23:48:00.253Z,8.26
2018-09-26T23:50:30.310Z,8.24
2018-09-26T23:52:59.570Z,8.25
2018-09-26T23:55:28.650Z,8.19
2018-09-26T23:57:57.847Z,8.13
